Map

Track Data

SID SEASON NUMBER BASIN SUBBASIN NAME ISO_TIME NATURE LAT LON WMO_WIND WMO_PRES WMO_AGENCY TRACK_TYPE DIST2LAND LANDFALL IFLAG USA_AGENCY USA_ATCF_ID USA_LAT USA_LON USA_RECORD USA_STATUS USA_WIND USA_PRES USA_SSHS USA_R34_NE USA_R34_SE USA_R34_SW USA_R34_NW USA_R50_NE USA_R50_SE USA_R50_SW USA_R50_NW USA_R64_NE USA_R64_SE USA_R64_SW USA_R64_NW USA_POCI USA_ROCI USA_RMW USA_EYE TOKYO_LAT TOKYO_LON TOKYO_GRADE TOKYO_WIND TOKYO_PRES TOKYO_R50_DIR TOKYO_R50_LONG TOKYO_R50_SHORT TOKYO_R30_DIR TOKYO_R30_LONG TOKYO_R30_SHORT TOKYO_LAND CMA_LAT CMA_LON CMA_CAT CMA_WIND CMA_PRES HKO_LAT HKO_LON HKO_CAT HKO_WIND HKO_PRES NEWDELHI_LAT NEWDELHI_LON NEWDELHI_GRADE NEWDELHI_WIND NEWDELHI_PRES NEWDELHI_CI NEWDELHI_DP NEWDELHI_POCI REUNION_LAT REUNION_LON REUNION_TYPE REUNION_WIND REUNION_PRES REUNION_TNUM REUNION_CI REUNION_RMW REUNION_R34_NE REUNION_R34_SE REUNION_R34_SW REUNION_R34_NW REUNION_R50_NE REUNION_R50_SE REUNION_R50_SW REUNION_R50_NW REUNION_R64_NE REUNION_R64_SE REUNION_R64_SW REUNION_R64_NW BOM_LAT BOM_LON BOM_TYPE BOM_WIND BOM_PRES BOM_TNUM BOM_CI BOM_RMW BOM_R34_NE BOM_R34_SE BOM_R34_SW BOM_R34_NW BOM_R50_NE BOM_R50_SE BOM_R50_SW BOM_R50_NW BOM_R64_NE BOM_R64_SE BOM_R64_SW BOM_R64_NW BOM_ROCI BOM_POCI BOM_EYE BOM_POS_METHOD BOM_PRES_METHOD NADI_LAT NADI_LON NADI_CAT NADI_WIND NADI_PRES WELLINGTON_LAT WELLINGTON_LON WELLINGTON_WIND WELLINGTON_PRES DS824_LAT DS824_LON DS824_STAGE DS824_WIND DS824_PRES TD9636_LAT TD9636_LON TD9636_STAGE TD9636_WIND TD9636_PRES TD9635_LAT TD9635_LON TD9635_WIND TD9635_PRES TD9635_ROCI NEUMANN_LAT NEUMANN_LON NEUMANN_CLASS NEUMANN_WIND NEUMANN_PRES MLC_LAT MLC_LON MLC_CLASS MLC_WIND MLC_PRES USA_GUST BOM_GUST BOM_GUST_PER REUNION_GUST REUNION_GUST_PER USA_SEAHGT USA_SEARAD_NE USA_SEARAD_SE USA_SEARAD_SW USA_SEARAD_NW STORM_SPEED STORM_DIR
1872275S14430 1873 25 SI MM NOT_NAMED 1872-09-30 18:00:00 NR -14.4000 69.6000 main 1415 1375 __________O___ -1 -14.4000 69.6000 7 7 241
1872275S14430 1873 25 SI MM NOT_NAMED 1872-09-30 21:00:00 NR -14.5612 69.3018 main 1375 1342 __________P___ -1 -14.5612 69.3018 7 7 240
1872275S14430 1873 25 SI MM NOT_NAMED 1872-10-01 00:00:00 NR -14.7278 69.0027 main 1342 1303 __________P___ -1 -14.7278 69.0027 7 7 239
1872275S14430 1873 25 SI MM NOT_NAMED 1872-10-01 03:00:00 NR -14.9055 68.7023 main 1303 1264 __________P___ -1 -14.9055 68.7023 7 7 237
1872275S14430 1873 25 SI MM NOT_NAMED 1872-10-01 06:00:00 NR -15.1000 68.4000 main 1264 1225 __________O___ -1 -15.1000 68.4000 7 7 235
1872275S14430 1873 25 SI MM NOT_NAMED 1872-10-01 09:00:00 NR -15.3146 68.0959 main 1225 1186 __________P___ -1 -15.3146 68.0959 7 7 233
1872275S14430 1873 25 SI MM NOT_NAMED 1872-10-01 12:00:00 NR -15.5424 67.7925 main 1186 1142 __________P___ -1 -15.5424 67.7925 7 7 232
1872275S14430 1873 25 SI MM NOT_NAMED 1872-10-01 15:00:00 NR -15.7740 67.4928 main 1142 1103 __________P___ -1 -15.7740 67.4928 7 7 231
1872275S14430 1873 25 SI MM NOT_NAMED 1872-10-01 18:00:00 NR -16.0000 67.2000 main 1103 1064 __________O___ -1 -16.0000 67.2000 7 7 233
1872275S14430 1873 25 SI MM NOT_NAMED 1872-10-01 21:00:00 NR -16.1948 66.9174 main 1064 1035 __________P___ -1 -16.1948 66.9174 7 7 234
1872275S14430 1873 25 SI MM NOT_NAMED 1872-10-02 00:00:00 NR -16.3848 66.6420 main 1025 996 __________P___ -1 -16.3848 66.6420 7 7 234
1872275S14430 1873 25 SI MM NOT_NAMED 1872-10-02 03:00:00 NR -16.5824 66.3705 main 996 958 __________P___ -1 -16.5824 66.3705 7 7 231
1872275S14430 1873 25 SI MM NOT_NAMED 1872-10-02 06:00:00 NR -16.8000 66.1000 main 958 915 __________O___ -1 -16.8000 66.1000 7 7 227
1872275S14430 1873 25 SI MM NOT_NAMED 1872-10-02 09:00:00 NR -17.0737 65.8211 main 915 886 __________P___ -1 -17.0737 65.8211 7 8 223
1872275S14430 1873 25 SI MM NOT_NAMED 1872-10-02 12:00:00 NR -17.3649 65.5428 main 872 844 __________P___ -1 -17.3649 65.5428 7 8 223
1872275S14430 1873 25 SI MM NOT_NAMED 1872-10-02 15:00:00 NR -17.6487 65.2680 main 844 802 __________P___ -1 -17.6487 65.2680 7 7 224
1872275S14430 1873 25 SI MM NOT_NAMED 1872-10-02 18:00:00 NR -17.9000 65.0000 main 802 775 __________O___ -1 -17.9000 65.0000 7 6 229
1872275S14430 1873 25 SI MM NOT_NAMED 1872-10-02 21:00:00 NR -18.0694 64.7543 main 775 741 __________P___ -1 -18.0694 64.7543 7 6 236
1872275S14430 1873 25 SI MM NOT_NAMED 1872-10-03 00:00:00 NR -18.2071 64.5140 main 741 717 __________P___ -1 -18.2071 64.5140 7 5 240
1872275S14430 1873 25 SI MM NOT_NAMED 1872-10-03 03:00:00 NR -18.3413 64.2668 main 717 680 __________P___ -1 -18.3413 64.2668 7 6 239
1872275S14430 1873 25 SI MM NOT_NAMED 1872-10-03 06:00:00 NR -18.5000 64.0000 main 680 643 __________O___ -1 -18.5000 64.0000 7 7 235
1872275S14430 1873 25 SI MM NOT_NAMED 1872-10-03 09:00:00 NR -18.7295 63.6887 main 643 604 __________P___ -1 -18.7295 63.6887 7 8 231
1872275S14430 1873 25 SI MM NOT_NAMED 1872-10-03 12:00:00 NR -18.9851 63.3579 main 604 557 __________P___ -1 -18.9851 63.3579 7 8 231
1872275S14430 1873 25 SI MM NOT_NAMED 1872-10-03 15:00:00 NR -19.2482 63.0231 main 557 520 __________P___ -1 -19.2482 63.0231 7 8 230
1872275S14430 1873 25 SI MM NOT_NAMED 1872-10-03 18:00:00 NR -19.5000 62.7000 main 520 485 __________O___ -1 -19.5000 62.7000 7 8 231
1872275S14430 1873 25 SI MM NOT_NAMED 1872-10-03 21:00:00 NR -19.7262 62.4009 main 485 451 __________P___ -1 -19.7262 62.4009 7 7 232
1872275S14430 1873 25 SI MM NOT_NAMED 1872-10-04 00:00:00 NR -19.9301 62.1226 main 451 428 __________P___ -1 -19.9301 62.1226 7 6 232
1872275S14430 1873 25 SI MM NOT_NAMED 1872-10-04 03:00:00 NR -20.1189 61.8580 main 428 396 __________P___ -1 -20.1189 61.8580 7 6 233
1872275S14430 1873 25 SI MM NOT_NAMED 1872-10-04 06:00:00 NR -20.3000 61.6000 main 396 __________O___ -1 -20.3000 61.6000 7 6 233

About IBTrACS Database

This database is a web-friendly format of International Best Track Archive for Climate Stewardship (IBTrACS), a global best track data archive curated by NOAA dating back to 1842.

Updated: 2021-12-01